sensor_id;sensor_type;location;lat;lon;timestamp;P1;durP1;ratioP1;P2;durP2;ratioP2
71320;SDS011;59118;54.322;18.576;2023-02-01T00:00:22;4.85;;;0.85;;
71320;SDS011;59118;54.322;18.576;2023-02-01T00:02:49;9.15;;;1.17;;
71320;SDS011;59118;54.322;18.576;2023-02-01T00:05:16;9.52;;;1.23;;
71320;SDS011;59118;54.322;18.576;2023-02-01T00:07:42;5.22;;;0.50;;
71320;SDS011;59118;54.322;18.576;2023-02-01T00:10:09;4.97;;;0.73;;
71320;SDS011;59118;54.322;18.576;2023-02-01T00:12:36;5.35;;;0.68;;
71320;SDS011;59118;54.322;18.576;2023-02-01T00:15:03;5.18;;;0.88;;
71320;SDS011;59118;54.322;18.576;2023-02-01T00:17:30;6.22;;;0.60;;
71320;SDS011;59118;54.322;18.576;2023-02-01T00:19:56;6.70;;;0.90;;
71320;SDS011;59118;54.322;18.576;2023-02-01T00:22:23;9.50;;;1.17;;
71320;SDS011;59118;54.322;18.576;2023-02-01T00:24:49;5.07;;;0.88;;
71320;SDS011;59118;54.322;18.576;2023-02-01T00:27:16;7.50;;;1.00;;
71320;SDS011;59118;54.322;18.576;2023-02-01T00:29:46;5.55;;;0.70;;
71320;SDS011;59118;54.322;18.576;2023-02-01T00:32:13;10.43;;;1.33;;
71320;SDS011;59118;54.322;18.576;2023-02-01T00:34:40;6.93;;;0.90;;
71320;SDS011;59118;54.322;18.576;2023-02-01T00:37:06;6.10;;;0.85;;
71320;SDS011;59118;54.322;18.576;2023-02-01T00:39:33;7.00;;;0.77;;
71320;SDS011;59118;54.322;18.576;2023-02-01T00:42:00;6.95;;;0.63;;
71320;SDS011;59118;54.322;18.576;2023-02-01T00:44:28;4.03;;;0.60;;
71320;SDS011;59118;54.322;18.576;2023-02-01T00:46:59;9.70;;;0.73;;
71320;SDS011;59118;54.322;18.576;2023-02-01T00:49:26;4.50;;;0.38;;
71320;SDS011;59118;54.322;18.576;2023-02-01T00:51:54;3.95;;;0.63;;
71320;SDS011;59118;54.322;18.576;2023-02-01T00:54:21;5.78;;;0.77;;
71320;SDS011;59118;54.322;18.576;2023-02-01T00:56:47;4.00;;;0.38;;
71320;SDS011;59118;54.322;18.576;2023-02-01T00:59:14;5.17;;;0.70;;
71320;SDS011;59118;54.322;18.576;2023-02-01T01:01:40;2.85;;;0.73;;
71320;SDS011;59118;54.322;18.576;2023-02-01T01:04:07;6.68;;;0.65;;
71320;SDS011;59118;54.322;18.576;2023-02-01T01:06:34;8.88;;;0.70;;
71320;SDS011;59118;54.322;18.576;2023-02-01T01:09:02;5.32;;;0.63;;
71320;SDS011;59118;54.322;18.576;2023-02-01T01:11:31;2.63;;;0.30;;
71320;SDS011;59118;54.322;18.576;2023-02-01T01:13:59;6.35;;;0.60;;
71320;SDS011;59118;54.322;18.576;2023-02-01T01:16:26;8.45;;;0.55;;
71320;SDS011;59118;54.322;18.576;2023-02-01T01:18:54;8.40;;;0.90;;
71320;SDS011;59118;54.322;18.576;2023-02-01T01:21:21;7.05;;;0.75;;
71320;SDS011;59118;54.322;18.576;2023-02-01T01:23:48;8.57;;;0.73;;
71320;SDS011;59118;54.322;18.576;2023-02-01T01:26:18;6.65;;;0.68;;
71320;SDS011;59118;54.322;18.576;2023-02-01T01:28:46;2.60;;;0.50;;
71320;SDS011;59118;54.322;18.576;2023-02-01T01:31:13;2.78;;;0.80;;
71320;SDS011;59118;54.322;18.576;2023-02-01T01:33:41;7.55;;;0.60;;
71320;SDS011;59118;54.322;18.576;2023-02-01T01:36:10;5.80;;;0.80;;
71320;SDS011;59118;54.322;18.576;2023-02-01T01:38:38;8.88;;;0.82;;
71320;SDS011;59118;54.322;18.576;2023-02-01T01:41:08;6.03;;;0.80;;
71320;SDS011;59118;54.322;18.576;2023-02-01T01:43:47;4.18;;;0.40;;
71320;SDS011;59118;54.322;18.576;2023-02-01T01:46:20;4.75;;;0.70;;
71320;SDS011;59118;54.322;18.576;2023-02-01T01:48:50;4.07;;;0.60;;
71320;SDS011;59118;54.322;18.576;2023-02-01T01:51:20;3.95;;;0.70;;
71320;SDS011;59118;54.322;18.576;2023-02-01T01:53:49;5.95;;;0.60;;
71320;SDS011;59118;54.322;18.576;2023-02-01T01:56:20;3.83;;;0.50;;
71320;SDS011;59118;54.322;18.576;2023-02-01T01:58:47;6.90;;;1.30;;
71320;SDS011;59118;54.322;18.576;2023-02-01T02:01:14;7.97;;;1.10;;
71320;SDS011;59118;54.322;18.576;2023-02-01T02:03:42;4.00;;;0.50;;
71320;SDS011;59118;54.322;18.576;2023-02-01T02:06:16;5.43;;;0.50;;
71320;SDS011;59118;54.322;18.576;2023-02-01T02:09:01;5.32;;;0.63;;
71320;SDS011;59118;54.322;18.576;2023-02-01T02:11:32;5.90;;;0.52;;
71320;SDS011;59118;54.322;18.576;2023-02-01T02:13:58;4.50;;;0.60;;
71320;SDS011;59118;54.322;18.576;2023-02-01T02:33:59;6.07;;;1.10;;
71320;SDS011;59118;54.322;18.576;2023-02-01T02:36:50;7.47;;;0.70;;
71320;SDS011;59118;54.322;18.576;2023-02-01T02:42:13;3.20;;;0.40;;
71320;SDS011;59118;54.322;18.576;2023-02-01T02:45:17;5.55;;;0.95;;
71320;SDS011;59118;54.322;18.576;2023-02-01T02:50:50;4.53;;;0.50;;
71320;SDS011;59118;54.322;18.576;2023-02-01T02:57:00;5.30;;;0.40;;
71320;SDS011;59118;54.322;18.576;2023-02-01T02:59:47;4.15;;;0.52;;
71320;SDS011;59118;54.322;18.576;2023-02-01T03:02:32;5.32;;;0.52;;
71320;SDS011;59118;54.322;18.576;2023-02-01T03:05:18;2.72;;;0.50;;
71320;SDS011;59118;54.322;18.576;2023-02-01T03:10:18;3.03;;;0.50;;
71320;SDS011;59118;54.322;18.576;2023-02-01T03:12:49;3.90;;;0.40;;
71320;SDS011;59118;54.322;18.576;2023-02-01T03:15:32;2.90;;;1.60;;
71320;SDS011;59118;54.322;18.576;2023-02-01T03:18:01;3.13;;;0.68;;
71320;SDS011;59118;54.322;18.576;2023-02-01T03:20:29;6.60;;;0.60;;
71320;SDS011;59118;54.322;18.576;2023-02-01T03:22:56;5.40;;;0.77;;
71320;SDS011;59118;54.322;18.576;2023-02-01T03:25:30;1.75;;;0.45;;
71320;SDS011;59118;54.322;18.576;2023-02-01T03:27:59;5.03;;;0.60;;
71320;SDS011;59118;54.322;18.576;2023-02-01T03:30:33;0.90;;;0.20;;
71320;SDS011;59118;54.322;18.576;2023-02-01T03:33:02;4.32;;;1.15;;
71320;SDS011;59118;54.322;18.576;2023-02-01T03:38:07;6.22;;;0.65;;
71320;SDS011;59118;54.322;18.576;2023-02-01T03:40:45;5.13;;;0.82;;
71320;SDS011;59118;54.322;18.576;2023-02-01T03:43:18;7.80;;;0.70;;
71320;SDS011;59118;54.322;18.576;2023-02-01T03:45:48;9.00;;;1.13;;
71320;SDS011;59118;54.322;18.576;2023-02-01T03:48:18;5.20;;;0.50;;
71320;SDS011;59118;54.322;18.576;2023-02-01T03:50:46;10.65;;;0.80;;
71320;SDS011;59118;54.322;18.576;2023-02-01T03:53:16;7.47;;;1.17;;
71320;SDS011;59118;54.322;18.576;2023-02-01T03:55:47;10.50;;;0.80;;
71320;SDS011;59118;54.322;18.576;2023-02-01T03:58:21;3.03;;;0.60;;
71320;SDS011;59118;54.322;18.576;2023-02-01T04:03:22;5.57;;;0.80;;
71320;SDS011;59118;54.322;18.576;2023-02-01T04:05:50;9.90;;;0.90;;
71320;SDS011;59118;54.322;18.576;2023-02-01T04:08:18;6.25;;;0.73;;
71320;SDS011;59118;54.322;18.576;2023-02-01T04:10:45;7.18;;;1.15;;
71320;SDS011;59118;54.322;18.576;2023-02-01T04:13:12;8.07;;;1.17;;
71320;SDS011;59118;54.322;18.576;2023-02-01T04:15:39;6.20;;;0.90;;
71320;SDS011;59118;54.322;18.576;2023-02-01T04:18:05;10.07;;;1.10;;
71320;SDS011;59118;54.322;18.576;2023-02-01T04:20:32;6.72;;;1.00;;
71320;SDS011;59118;54.322;18.576;2023-02-01T04:22:59;8.80;;;1.67;;
71320;SDS011;59118;54.322;18.576;2023-02-01T04:25:28;12.70;;;1.20;;
71320;SDS011;59118;54.322;18.576;2023-02-01T04:27:56;9.88;;;1.08;;
71320;SDS011;59118;54.322;18.576;2023-02-01T04:30:22;5.80;;;0.80;;
71320;SDS011;59118;54.322;18.576;2023-02-01T04:32:50;4.20;;;0.65;;
71320;SDS011;59118;54.322;18.576;2023-02-01T04:35:16;4.65;;;0.90;;
71320;SDS011;59118;54.322;18.576;2023-02-01T04:37:43;8.30;;;1.00;;
71320;SDS011;59118;54.322;18.576;2023-02-01T04:40:10;9.98;;;1.13;;
71320;SDS011;59118;54.322;18.576;2023-02-01T04:42:37;6.65;;;1.30;;
71320;SDS011;59118;54.322;18.576;2023-02-01T04:45:04;6.70;;;1.10;;
71320;SDS011;59118;54.322;18.576;2023-02-01T04:47:31;8.35;;;1.23;;
71320;SDS011;59118;54.322;18.576;2023-02-01T04:49:58;6.17;;;0.67;;
71320;SDS011;59118;54.322;18.576;2023-02-01T04:52:24;6.93;;;0.60;;
71320;SDS011;59118;54.322;18.576;2023-02-01T04:54:51;5.90;;;1.27;;
71320;SDS011;59118;54.322;18.576;2023-02-01T04:57:20;8.55;;;1.05;;
71320;SDS011;59118;54.322;18.576;2023-02-01T04:59:47;14.02;;;1.02;;
71320;SDS011;59118;54.322;18.576;2023-02-01T05:02:13;10.33;;;0.90;;
71320;SDS011;59118;54.322;18.576;2023-02-01T05:04:40;9.98;;;1.00;;
71320;SDS011;59118;54.322;18.576;2023-02-01T05:07:06;7.65;;;1.00;;
71320;SDS011;59118;54.322;18.576;2023-02-01T05:09:33;10.68;;;1.10;;
71320;SDS011;59118;54.322;18.576;2023-02-01T05:11:59;8.57;;;1.10;;
71320;SDS011;59118;54.322;18.576;2023-02-01T05:14:44;6.27;;;1.10;;
71320;SDS011;59118;54.322;18.576;2023-02-01T05:17:11;9.40;;;0.77;;
71320;SDS011;59118;54.322;18.576;2023-02-01T05:19:38;9.63;;;1.15;;
71320;SDS011;59118;54.322;18.576;2023-02-01T05:22:04;7.53;;;0.70;;
71320;SDS011;59118;54.322;18.576;2023-02-01T05:24:31;8.95;;;0.80;;
71320;SDS011;59118;54.322;18.576;2023-02-01T05:26:57;10.27;;;0.73;;
71320;SDS011;59118;54.322;18.576;2023-02-01T05:29:24;8.77;;;1.20;;
71320;SDS011;59118;54.322;18.576;2023-02-01T05:31:50;10.52;;;1.05;;
71320;SDS011;59118;54.322;18.576;2023-02-01T05:34:17;13.20;;;1.38;;
71320;SDS011;59118;54.322;18.576;2023-02-01T05:36:44;7.65;;;1.30;;
71320;SDS011;59118;54.322;18.576;2023-02-01T05:39:10;9.00;;;1.00;;
71320;SDS011;59118;54.322;18.576;2023-02-01T05:41:37;8.63;;;1.38;;
71320;SDS011;59118;54.322;18.576;2023-02-01T05:44:03;4.10;;;0.75;;
71320;SDS011;59118;54.322;18.576;2023-02-01T05:46:33;4.50;;;0.90;;
71320;SDS011;59118;54.322;18.576;2023-02-01T05:49:01;6.47;;;1.25;;
71320;SDS011;59118;54.322;18.576;2023-02-01T05:51:27;6.03;;;1.10;;
71320;SDS011;59118;54.322;18.576;2023-02-01T05:53:54;4.43;;;1.10;;
71320;SDS011;59118;54.322;18.576;2023-02-01T05:56:20;7.22;;;0.98;;
71320;SDS011;59118;54.322;18.576;2023-02-01T05:58:47;11.10;;;1.40;;
71320;SDS011;59118;54.322;18.576;2023-02-01T06:01:13;8.30;;;1.35;;
71320;SDS011;59118;54.322;18.576;2023-02-01T06:03:40;8.00;;;1.33;;
71320;SDS011;59118;54.322;18.576;2023-02-01T06:06:07;7.35;;;0.90;;
71320;SDS011;59118;54.322;18.576;2023-02-01T06:08:33;9.65;;;1.10;;
71320;SDS011;59118;54.322;18.576;2023-02-01T06:11:00;7.68;;;0.95;;
71320;SDS011;59118;54.322;18.576;2023-02-01T06:13:28;10.10;;;1.08;;
71320;SDS011;59118;54.322;18.576;2023-02-01T06:15:56;9.07;;;1.00;;
71320;SDS011;59118;54.322;18.576;2023-02-01T06:18:23;5.43;;;0.88;;
71320;SDS011;59118;54.322;18.576;2023-02-01T06:20:54;6.80;;;0.95;;
71320;SDS011;59118;54.322;18.576;2023-02-01T06:23:22;6.35;;;1.00;;
71320;SDS011;59118;54.322;18.576;2023-02-01T06:25:57;6.65;;;1.15;;
71320;SDS011;59118;54.322;18.576;2023-02-01T06:28:25;7.77;;;1.10;;
71320;SDS011;59118;54.322;18.576;2023-02-01T06:30:52;6.15;;;0.70;;
71320;SDS011;59118;54.322;18.576;2023-02-01T06:33:19;6.93;;;1.23;;
71320;SDS011;59118;54.322;18.576;2023-02-01T06:35:46;3.67;;;0.63;;
71320;SDS011;59118;54.322;18.576;2023-02-01T06:38:13;8.80;;;1.25;;
71320;SDS011;59118;54.322;18.576;2023-02-01T06:40:40;7.33;;;1.33;;
71320;SDS011;59118;54.322;18.576;2023-02-01T06:43:08;6.55;;;0.80;;
71320;SDS011;59118;54.322;18.576;2023-02-01T06:45:34;6.07;;;1.10;;
71320;SDS011;59118;54.322;18.576;2023-02-01T06:48:01;10.15;;;1.52;;
71320;SDS011;59118;54.322;18.576;2023-02-01T06:50:28;11.75;;;1.23;;
71320;SDS011;59118;54.322;18.576;2023-02-01T06:52:54;10.60;;;1.60;;
71320;SDS011;59118;54.322;18.576;2023-02-01T06:55:21;5.45;;;1.30;;
71320;SDS011;59118;54.322;18.576;2023-02-01T06:57:48;14.68;;;1.67;;
71320;SDS011;59118;54.322;18.576;2023-02-01T07:00:15;14.20;;;1.45;;
71320;SDS011;59118;54.322;18.576;2023-02-01T07:02:43;13.05;;;1.65;;
71320;SDS011;59118;54.322;18.576;2023-02-01T07:05:09;7.73;;;1.03;;
71320;SDS011;59118;54.322;18.576;2023-02-01T07:07:36;5.05;;;0.90;;
71320;SDS011;59118;54.322;18.576;2023-02-01T07:10:02;12.13;;;1.60;;
71320;SDS011;59118;54.322;18.576;2023-02-01T07:12:29;7.03;;;1.55;;
71320;SDS011;59118;54.322;18.576;2023-02-01T07:14:55;9.32;;;1.17;;
71320;SDS011;59118;54.322;18.576;2023-02-01T07:17:25;6.87;;;1.27;;
71320;SDS011;59118;54.322;18.576;2023-02-01T07:19:51;7.22;;;1.05;;
71320;SDS011;59118;54.322;18.576;2023-02-01T07:22:18;7.57;;;1.38;;
71320;SDS011;59118;54.322;18.576;2023-02-01T07:24:45;11.93;;;1.58;;
71320;SDS011;59118;54.322;18.576;2023-02-01T07:27:11;3.22;;;0.98;;
71320;SDS011;59118;54.322;18.576;2023-02-01T07:29:38;7.47;;;1.10;;
71320;SDS011;59118;54.322;18.576;2023-02-01T07:32:04;18.00;;;2.10;;
71320;SDS011;59118;54.322;18.576;2023-02-01T07:34:31;10.05;;;2.05;;
71320;SDS011;59118;54.322;18.576;2023-02-01T07:36:59;12.40;;;1.60;;
71320;SDS011;59118;54.322;18.576;2023-02-01T07:39:25;11.73;;;2.15;;
71320;SDS011;59118;54.322;18.576;2023-02-01T07:41:54;26.13;;;2.13;;
71320;SDS011;59118;54.322;18.576;2023-02-01T07:44:22;16.92;;;1.85;;
71320;SDS011;59118;54.322;18.576;2023-02-01T07:46:49;9.88;;;1.35;;
71320;SDS011;59118;54.322;18.576;2023-02-01T07:49:16;11.43;;;1.58;;
71320;SDS011;59118;54.322;18.576;2023-02-01T07:51:43;17.58;;;2.58;;
71320;SDS011;59118;54.322;18.576;2023-02-01T07:54:10;15.70;;;2.67;;
71320;SDS011;59118;54.322;18.576;2023-02-01T07:56:36;9.60;;;1.40;;
71320;SDS011;59118;54.322;18.576;2023-02-01T07:59:03;13.60;;;2.22;;
71320;SDS011;59118;54.322;18.576;2023-02-01T08:01:30;13.07;;;1.70;;
71320;SDS011;59118;54.322;18.576;2023-02-01T08:03:57;15.23;;;1.73;;
71320;SDS011;59118;54.322;18.576;2023-02-01T08:06:25;11.47;;;1.73;;
71320;SDS011;59118;54.322;18.576;2023-02-01T08:08:54;16.77;;;2.28;;
71320;SDS011;59118;54.322;18.576;2023-02-01T08:11:21;17.52;;;2.05;;
71320;SDS011;59118;54.322;18.576;2023-02-01T08:13:48;17.48;;;2.15;;
71320;SDS011;59118;54.322;18.576;2023-02-01T08:16:15;16.92;;;2.10;;
71320;SDS011;59118;54.322;18.576;2023-02-01T08:18:43;13.67;;;1.77;;
71320;SDS011;59118;54.322;18.576;2023-02-01T08:21:11;19.25;;;2.78;;
71320;SDS011;59118;54.322;18.576;2023-02-01T08:23:40;14.30;;;2.35;;
71320;SDS011;59118;54.322;18.576;2023-02-01T08:26:08;17.83;;;1.75;;
71320;SDS011;59118;54.322;18.576;2023-02-01T08:28:42;13.73;;;2.35;;
71320;SDS011;59118;54.322;18.576;2023-02-01T08:31:11;17.57;;;2.13;;
71320;SDS011;59118;54.322;18.576;2023-02-01T08:33:41;19.00;;;2.20;;
71320;SDS011;59118;54.322;18.576;2023-02-01T08:36:09;16.48;;;1.88;;
71320;SDS011;59118;54.322;18.576;2023-02-01T08:38:37;13.55;;;1.95;;
71320;SDS011;59118;54.322;18.576;2023-02-01T08:41:07;14.93;;;2.00;;
71320;SDS011;59118;54.322;18.576;2023-02-01T08:43:35;15.47;;;2.23;;
71320;SDS011;59118;54.322;18.576;2023-02-01T08:46:02;18.88;;;2.45;;
71320;SDS011;59118;54.322;18.576;2023-02-01T08:48:30;12.85;;;1.63;;
71320;SDS011;59118;54.322;18.576;2023-02-01T08:50:57;17.23;;;1.70;;
71320;SDS011;59118;54.322;18.576;2023-02-01T08:53:27;21.25;;;2.80;;
71320;SDS011;59118;54.322;18.576;2023-02-01T08:55:54;17.73;;;2.10;;
71320;SDS011;59118;54.322;18.576;2023-02-01T08:58:20;13.57;;;2.67;;
71320;SDS011;59118;54.322;18.576;2023-02-01T09:00:48;15.77;;;1.52;;
71320;SDS011;59118;54.322;18.576;2023-02-01T09:03:15;16.05;;;2.72;;
71320;SDS011;59118;54.322;18.576;2023-02-01T09:05:41;16.65;;;1.70;;
71320;SDS011;59118;54.322;18.576;2023-02-01T09:08:15;19.63;;;2.40;;
71320;SDS011;59118;54.322;18.576;2023-02-01T09:10:41;14.15;;;2.00;;
71320;SDS011;59118;54.322;18.576;2023-02-01T09:13:08;15.00;;;1.65;;
71320;SDS011;59118;54.322;18.576;2023-02-01T09:15:35;21.17;;;2.33;;
71320;SDS011;59118;54.322;18.576;2023-02-01T09:18:03;10.80;;;1.73;;
71320;SDS011;59118;54.322;18.576;2023-02-01T09:20:30;16.50;;;1.70;;
71320;SDS011;59118;54.322;18.576;2023-02-01T09:22:56;12.73;;;1.30;;
71320;SDS011;59118;54.322;18.576;2023-02-01T09:25:23;12.18;;;1.77;;
71320;SDS011;59118;54.322;18.576;2023-02-01T09:27:50;14.27;;;1.60;;
71320;SDS011;59118;54.322;18.576;2023-02-01T09:30:16;13.38;;;1.60;;
71320;SDS011;59118;54.322;18.576;2023-02-01T09:32:43;17.10;;;1.43;;
71320;SDS011;59118;54.322;18.576;2023-02-01T09:35:09;12.65;;;1.63;;
71320;SDS011;59118;54.322;18.576;2023-02-01T09:37:36;19.27;;;2.42;;
71320;SDS011;59118;54.322;18.576;2023-02-01T09:40:03;11.52;;;1.98;;
71320;SDS011;59118;54.322;18.576;2023-02-01T09:42:49;16.30;;;1.90;;
71320;SDS011;59118;54.322;18.576;2023-02-01T09:48:34;8.40;;;1.63;;
71320;SDS011;59118;54.322;18.576;2023-02-01T09:51:04;9.98;;;1.60;;
71320;SDS011;59118;54.322;18.576;2023-02-01T09:53:34;10.32;;;1.45;;
71320;SDS011;59118;54.322;18.576;2023-02-01T09:56:05;10.40;;;1.65;;
71320;SDS011;59118;54.322;18.576;2023-02-01T10:01:18;6.85;;;1.17;;
71320;SDS011;59118;54.322;18.576;2023-02-01T10:03:46;10.98;;;1.73;;
71320;SDS011;59118;54.322;18.576;2023-02-01T10:17:51;8.35;;;1.40;;
71320;SDS011;59118;54.322;18.576;2023-02-01T10:26:25;11.47;;;1.23;;
71320;SDS011;59118;54.322;18.576;2023-02-01T10:29:01;4.55;;;0.68;;
71320;SDS011;59118;54.322;18.576;2023-02-01T10:31:31;7.03;;;0.90;;
71320;SDS011;59118;54.322;18.576;2023-02-01T10:37:20;7.00;;;1.17;;
71320;SDS011;59118;54.322;18.576;2023-02-01T10:39:49;9.90;;;1.03;;
71320;SDS011;59118;54.322;18.576;2023-02-01T10:42:17;7.55;;;1.10;;
71320;SDS011;59118;54.322;18.576;2023-02-01T10:44:45;8.60;;;1.15;;
71320;SDS011;59118;54.322;18.576;2023-02-01T10:47:14;9.90;;;1.90;;
71320;SDS011;59118;54.322;18.576;2023-02-01T10:55:32;10.10;;;1.75;;
71320;SDS011;59118;54.322;18.576;2023-02-01T10:58:03;10.85;;;1.60;;
71320;SDS011;59118;54.322;18.576;2023-02-01T11:00:40;8.57;;;2.03;;
71320;SDS011;59118;54.322;18.576;2023-02-01T11:03:22;7.70;;;1.35;;
71320;SDS011;59118;54.322;18.576;2023-02-01T11:05:58;8.47;;;1.40;;
71320;SDS011;59118;54.322;18.576;2023-02-01T11:08:26;10.23;;;1.25;;
71320;SDS011;59118;54.322;18.576;2023-02-01T11:11:00;10.52;;;1.88;;
71320;SDS011;59118;54.322;18.576;2023-02-01T11:13:32;9.05;;;1.15;;
71320;SDS011;59118;54.322;18.576;2023-02-01T11:16:02;8.85;;;1.20;;
71320;SDS011;59118;54.322;18.576;2023-02-01T11:18:32;6.37;;;1.20;;
71320;SDS011;59118;54.322;18.576;2023-02-01T11:21:02;6.70;;;1.52;;
71320;SDS011;59118;54.322;18.576;2023-02-01T11:23:30;5.47;;;0.88;;
71320;SDS011;59118;54.322;18.576;2023-02-01T11:26:00;5.85;;;0.90;;
71320;SDS011;59118;54.322;18.576;2023-02-01T11:28:32;4.47;;;0.68;;
71320;SDS011;59118;54.322;18.576;2023-02-01T11:31:00;7.27;;;0.93;;
71320;SDS011;59118;54.322;18.576;2023-02-01T11:33:30;8.77;;;1.10;;
71320;SDS011;59118;54.322;18.576;2023-02-01T11:36:06;5.90;;;1.00;;
71320;SDS011;59118;54.322;18.576;2023-02-01T11:38:34;3.42;;;0.65;;
71320;SDS011;59118;54.322;18.576;2023-02-01T11:41:24;4.00;;;0.88;;
71320;SDS011;59118;54.322;18.576;2023-02-01T11:43:55;6.00;;;1.03;;
71320;SDS011;59118;54.322;18.576;2023-02-01T11:46:27;3.88;;;0.75;;
71320;SDS011;59118;54.322;18.576;2023-02-01T11:48:56;4.35;;;0.80;;
71320;SDS011;59118;54.322;18.576;2023-02-01T11:51:39;4.93;;;0.90;;
71320;SDS011;59118;54.322;18.576;2023-02-01T11:54:27;4.28;;;1.00;;
71320;SDS011;59118;54.322;18.576;2023-02-01T11:57:19;6.27;;;1.10;;
71320;SDS011;59118;54.322;18.576;2023-02-01T12:24:43;7.83;;;1.60;;
71320;SDS011;59118;54.322;18.576;2023-02-01T12:35:29;6.05;;;1.38;;
71320;SDS011;59118;54.322;18.576;2023-02-01T12:38:20;3.90;;;0.83;;
71320;SDS011;59118;54.322;18.576;2023-02-01T12:46:29;6.88;;;1.02;;
71320;SDS011;59118;54.322;18.576;2023-02-01T12:49:04;5.20;;;0.90;;
71320;SDS011;59118;54.322;18.576;2023-02-01T12:51:36;5.23;;;0.70;;
71320;SDS011;59118;54.322;18.576;2023-02-01T12:56:41;3.55;;;0.77;;
71320;SDS011;59118;54.322;18.576;2023-02-01T12:59:33;6.20;;;1.05;;
71320;SDS011;59118;54.322;18.576;2023-02-01T13:07:30;6.55;;;0.90;;
71320;SDS011;59118;54.322;18.576;2023-02-01T13:10:03;9.63;;;1.23;;
71320;SDS011;59118;54.322;18.576;2023-02-01T13:12:54;6.32;;;1.10;;
71320;SDS011;59118;54.322;18.576;2023-02-01T13:15:34;4.15;;;0.70;;
71320;SDS011;59118;54.322;18.576;2023-02-01T13:18:04;4.83;;;1.20;;
71320;SDS011;59118;54.322;18.576;2023-02-01T13:20:34;7.72;;;1.33;;
71320;SDS011;59118;54.322;18.576;2023-02-01T13:23:04;8.55;;;1.50;;
71320;SDS011;59118;54.322;18.576;2023-02-01T13:25:40;8.75;;;1.48;;
71320;SDS011;59118;54.322;18.576;2023-02-01T13:28:34;9.63;;;1.77;;
71320;SDS011;59118;54.322;18.576;2023-02-01T13:42:37;9.40;;;1.92;;
71320;SDS011;59118;54.322;18.576;2023-02-01T13:45:15;10.77;;;2.03;;
71320;SDS011;59118;54.322;18.576;2023-02-01T13:47:51;12.27;;;2.65;;
71320;SDS011;59118;54.322;18.576;2023-02-01T13:50:27;6.50;;;1.65;;
71320;SDS011;59118;54.322;18.576;2023-02-01T13:55:44;5.80;;;1.20;;
71320;SDS011;59118;54.322;18.576;2023-02-01T13:58:19;10.20;;;1.40;;
71320;SDS011;59118;54.322;18.576;2023-02-01T14:03:51;5.18;;;1.15;;
71320;SDS011;59118;54.322;18.576;2023-02-01T14:11:50;9.00;;;1.47;;
71320;SDS011;59118;54.322;18.576;2023-02-01T14:17:32;8.30;;;1.30;;
71320;SDS011;59118;54.322;18.576;2023-02-01T14:19:37;5.05;;;1.25;;
71320;SDS011;59118;54.322;18.576;2023-02-01T14:24:56;9.43;;;1.60;;
71320;SDS011;59118;54.322;18.576;2023-02-01T14:27:27;6.00;;;1.50;;
71320;SDS011;59118;54.322;18.576;2023-02-01T14:29:56;10.27;;;1.50;;
71320;SDS011;59118;54.322;18.576;2023-02-01T14:32:26;10.60;;;1.58;;
71320;SDS011;59118;54.322;18.576;2023-02-01T14:34:58;8.32;;;1.63;;
71320;SDS011;59118;54.322;18.576;2023-02-01T14:37:28;8.60;;;1.60;;
71320;SDS011;59118;54.322;18.576;2023-02-01T14:42:49;7.90;;;1.45;;
71320;SDS011;59118;54.322;18.576;2023-02-01T14:58:02;6.30;;;1.52;;
71320;SDS011;59118;54.322;18.576;2023-02-01T15:00:32;7.10;;;1.63;;
71320;SDS011;59118;54.322;18.576;2023-02-01T15:03:15;7.57;;;1.77;;
71320;SDS011;59118;54.322;18.576;2023-02-01T15:05:43;8.13;;;1.83;;
71320;SDS011;59118;54.322;18.576;2023-02-01T15:08:15;8.63;;;1.63;;
71320;SDS011;59118;54.322;18.576;2023-02-01T15:10:44;8.60;;;2.33;;
71320;SDS011;59118;54.322;18.576;2023-02-01T15:13:18;6.07;;;1.40;;
71320;SDS011;59118;54.322;18.576;2023-02-01T15:18:38;7.57;;;1.77;;
71320;SDS011;59118;54.322;18.576;2023-02-01T15:21:05;6.15;;;1.35;;
71320;SDS011;59118;54.322;18.576;2023-02-01T15:24:02;2.50;;;0.85;;
71320;SDS011;59118;54.322;18.576;2023-02-01T15:26:36;5.50;;;1.30;;
71320;SDS011;59118;54.322;18.576;2023-02-01T15:29:03;4.67;;;1.00;;
71320;SDS011;59118;54.322;18.576;2023-02-01T15:31:36;8.02;;;1.92;;
71320;SDS011;59118;54.322;18.576;2023-02-01T15:34:05;5.57;;;1.52;;
71320;SDS011;59118;54.322;18.576;2023-02-01T15:36:34;7.68;;;2.03;;
71320;SDS011;59118;54.322;18.576;2023-02-01T15:39:23;8.82;;;2.10;;
71320;SDS011;59118;54.322;18.576;2023-02-01T15:41:56;5.37;;;1.80;;
71320;SDS011;59118;54.322;18.576;2023-02-01T15:47:19;6.70;;;1.23;;
71320;SDS011;59118;54.322;18.576;2023-02-01T15:49:51;8.52;;;1.48;;
71320;SDS011;59118;54.322;18.576;2023-02-01T15:52:41;4.43;;;1.40;;
71320;SDS011;59118;54.322;18.576;2023-02-01T15:55:53;6.10;;;1.30;;
71320;SDS011;59118;54.322;18.576;2023-02-01T15:58:05;10.32;;;1.67;;
71320;SDS011;59118;54.322;18.576;2023-02-01T16:01:10;6.93;;;2.05;;
71320;SDS011;59118;54.322;18.576;2023-02-01T16:03:40;9.48;;;1.80;;
71320;SDS011;59118;54.322;18.576;2023-02-01T16:06:12;7.03;;;1.52;;
71320;SDS011;59118;54.322;18.576;2023-02-01T16:09:03;8.87;;;1.80;;
71320;SDS011;59118;54.322;18.576;2023-02-01T16:11:40;9.20;;;1.70;;
71320;SDS011;59118;54.322;18.576;2023-02-01T16:14:19;5.82;;;1.33;;
71320;SDS011;59118;54.322;18.576;2023-02-01T16:16:46;11.18;;;1.90;;
71320;SDS011;59118;54.322;18.576;2023-02-01T16:19:12;8.65;;;2.25;;
71320;SDS011;59118;54.322;18.576;2023-02-01T16:21:39;10.07;;;1.90;;
71320;SDS011;59118;54.322;18.576;2023-02-01T16:24:06;12.57;;;2.08;;
71320;SDS011;59118;54.322;18.576;2023-02-01T16:26:33;9.00;;;2.75;;
71320;SDS011;59118;54.322;18.576;2023-02-01T16:29:00;11.15;;;2.70;;
71320;SDS011;59118;54.322;18.576;2023-02-01T16:31:36;10.57;;;2.13;;
71320;SDS011;59118;54.322;18.576;2023-02-01T16:34:04;11.00;;;2.50;;
71320;SDS011;59118;54.322;18.576;2023-02-01T16:36:32;13.43;;;3.20;;
71320;SDS011;59118;54.322;18.576;2023-02-01T16:38:59;13.10;;;2.90;;
71320;SDS011;59118;54.322;18.576;2023-02-01T16:41:26;14.43;;;3.03;;
71320;SDS011;59118;54.322;18.576;2023-02-01T16:43:54;12.73;;;3.08;;
71320;SDS011;59118;54.322;18.576;2023-02-01T16:46:23;14.87;;;3.20;;
71320;SDS011;59118;54.322;18.576;2023-02-01T16:48:58;16.98;;;2.40;;
71320;SDS011;59118;54.322;18.576;2023-02-01T16:51:28;7.75;;;2.70;;
71320;SDS011;59118;54.322;18.576;2023-02-01T16:54:01;9.15;;;2.20;;
71320;SDS011;59118;54.322;18.576;2023-02-01T16:56:32;12.43;;;2.42;;
71320;SDS011;59118;54.322;18.576;2023-02-01T16:58:59;15.23;;;2.93;;
71320;SDS011;59118;54.322;18.576;2023-02-01T17:01:26;14.35;;;2.97;;
71320;SDS011;59118;54.322;18.576;2023-02-01T17:03:53;15.02;;;3.00;;
71320;SDS011;59118;54.322;18.576;2023-02-01T17:06:21;12.75;;;2.42;;
71320;SDS011;59118;54.322;18.576;2023-02-01T17:08:54;11.07;;;2.13;;
71320;SDS011;59118;54.322;18.576;2023-02-01T17:11:21;12.13;;;2.10;;
71320;SDS011;59118;54.322;18.576;2023-02-01T17:13:48;8.70;;;2.13;;
71320;SDS011;59118;54.322;18.576;2023-02-01T17:18:54;17.25;;;2.55;;
71320;SDS011;59118;54.322;18.576;2023-02-01T17:21:27;10.15;;;2.30;;
71320;SDS011;59118;54.322;18.576;2023-02-01T17:24:06;13.73;;;1.93;;
71320;SDS011;59118;54.322;18.576;2023-02-01T17:26:46;15.10;;;2.67;;
71320;SDS011;59118;54.322;18.576;2023-02-01T17:29:14;12.25;;;2.22;;
71320;SDS011;59118;54.322;18.576;2023-02-01T17:31:42;11.88;;;2.00;;
71320;SDS011;59118;54.322;18.576;2023-02-01T17:34:10;9.50;;;1.92;;